sensor_id;sensor_type;location;lat;lon;timestamp;P1;durP1;ratioP1;P2;durP2;ratioP2
62056;SDS011;48016;50.284;18.860;2023-05-07T00:00:05;14.70;;;11.60;;
62056;SDS011;48016;50.284;18.860;2023-05-07T00:02:56;13.80;;;10.40;;
62056;SDS011;48016;50.284;18.860;2023-05-07T00:05:22;15.70;;;11.30;;
62056;SDS011;48016;50.284;18.860;2023-05-07T00:07:49;20.90;;;12.00;;
62056;SDS011;48016;50.284;18.860;2023-05-07T00:10:16;17.70;;;12.50;;
62056;SDS011;48016;50.284;18.860;2023-05-07T00:12:42;18.80;;;13.20;;
62056;SDS011;48016;50.284;18.860;2023-05-07T00:15:09;18.80;;;12.60;;
62056;SDS011;48016;50.284;18.860;2023-05-07T00:17:36;19.40;;;12.70;;
62056;SDS011;48016;50.284;18.860;2023-05-07T00:20:03;20.00;;;13.80;;
62056;SDS011;48016;50.284;18.860;2023-05-07T00:22:31;20.30;;;13.50;;
62056;SDS011;48016;50.284;18.860;2023-05-07T00:24:58;20.80;;;14.00;;
62056;SDS011;48016;50.284;18.860;2023-05-07T00:27:25;20.50;;;14.70;;
62056;SDS011;48016;50.284;18.860;2023-05-07T00:29:51;23.10;;;14.40;;
62056;SDS011;48016;50.284;18.860;2023-05-07T00:32:18;21.40;;;14.70;;
62056;SDS011;48016;50.284;18.860;2023-05-07T00:34:45;22.70;;;14.80;;
62056;SDS011;48016;50.284;18.860;2023-05-07T00:37:11;25.70;;;16.60;;
62056;SDS011;48016;50.284;18.860;2023-05-07T00:39:38;26.90;;;16.80;;
62056;SDS011;48016;50.284;18.860;2023-05-07T00:42:04;25.90;;;16.30;;
62056;SDS011;48016;50.284;18.860;2023-05-07T00:44:31;24.50;;;16.30;;
62056;SDS011;48016;50.284;18.860;2023-05-07T00:46:58;22.70;;;15.30;;
62056;SDS011;48016;50.284;18.860;2023-05-07T00:49:26;24.40;;;15.30;;
62056;SDS011;48016;50.284;18.860;2023-05-07T00:52:03;22.20;;;15.10;;
62056;SDS011;48016;50.284;18.860;2023-05-07T00:54:32;23.00;;;14.40;;
62056;SDS011;48016;50.284;18.860;2023-05-07T00:56:59;27.00;;;17.10;;
62056;SDS011;48016;50.284;18.860;2023-05-07T00:59:27;24.90;;;15.30;;
62056;SDS011;48016;50.284;18.860;2023-05-07T01:01:54;30.30;;;16.20;;
62056;SDS011;48016;50.284;18.860;2023-05-07T01:04:21;28.40;;;16.30;;
62056;SDS011;48016;50.284;18.860;2023-05-07T01:06:47;26.20;;;16.70;;
62056;SDS011;48016;50.284;18.860;2023-05-07T01:09:15;29.00;;;20.00;;
62056;SDS011;48016;50.284;18.860;2023-05-07T01:11:41;32.10;;;20.30;;
62056;SDS011;48016;50.284;18.860;2023-05-07T01:14:09;31.30;;;20.20;;
62056;SDS011;48016;50.284;18.860;2023-05-07T01:16:36;30.70;;;19.20;;
62056;SDS011;48016;50.284;18.860;2023-05-07T01:19:03;34.50;;;19.10;;
62056;SDS011;48016;50.284;18.860;2023-05-07T01:21:31;30.00;;;20.10;;
62056;SDS011;48016;50.284;18.860;2023-05-07T01:23:59;32.20;;;19.60;;
62056;SDS011;48016;50.284;18.860;2023-05-07T01:26:26;38.40;;;20.50;;
62056;SDS011;48016;50.284;18.860;2023-05-07T01:28:53;37.60;;;18.50;;
62056;SDS011;48016;50.284;18.860;2023-05-07T01:31:20;35.90;;;18.60;;
62056;SDS011;48016;50.284;18.860;2023-05-07T01:33:47;28.10;;;16.90;;
62056;SDS011;48016;50.284;18.860;2023-05-07T01:36:16;24.70;;;16.20;;
62056;SDS011;48016;50.284;18.860;2023-05-07T01:38:44;30.00;;;15.20;;
62056;SDS011;48016;50.284;18.860;2023-05-07T01:41:11;28.50;;;16.80;;
62056;SDS011;48016;50.284;18.860;2023-05-07T01:43:40;29.60;;;18.20;;
62056;SDS011;48016;50.284;18.860;2023-05-07T01:46:07;31.40;;;18.40;;
62056;SDS011;48016;50.284;18.860;2023-05-07T01:48:36;35.00;;;21.80;;
62056;SDS011;48016;50.284;18.860;2023-05-07T01:53:35;32.30;;;19.80;;
62056;SDS011;48016;50.284;18.860;2023-05-07T01:56:02;29.90;;;18.70;;
62056;SDS011;48016;50.284;18.860;2023-05-07T01:58:29;29.40;;;18.90;;
62056;SDS011;48016;50.284;18.860;2023-05-07T02:00:56;28.50;;;17.90;;
62056;SDS011;48016;50.284;18.860;2023-05-07T02:03:22;26.90;;;16.70;;
62056;SDS011;48016;50.284;18.860;2023-05-07T02:05:49;27.90;;;16.80;;
62056;SDS011;48016;50.284;18.860;2023-05-07T02:08:16;23.80;;;15.50;;
62056;SDS011;48016;50.284;18.860;2023-05-07T02:10:42;24.10;;;15.70;;
62056;SDS011;48016;50.284;18.860;2023-05-07T02:13:09;26.80;;;16.90;;
62056;SDS011;48016;50.284;18.860;2023-05-07T02:15:35;29.70;;;17.80;;
62056;SDS011;48016;50.284;18.860;2023-05-07T02:18:06;29.60;;;17.90;;
62056;SDS011;48016;50.284;18.860;2023-05-07T02:20:34;25.90;;;16.70;;
62056;SDS011;48016;50.284;18.860;2023-05-07T02:23:01;23.00;;;16.40;;
62056;SDS011;48016;50.284;18.860;2023-05-07T02:25:27;29.90;;;18.70;;
62056;SDS011;48016;50.284;18.860;2023-05-07T02:27:55;35.80;;;21.60;;
62056;SDS011;48016;50.284;18.860;2023-05-07T02:30:22;33.30;;;19.20;;
62056;SDS011;48016;50.284;18.860;2023-05-07T02:32:48;26.00;;;16.10;;
62056;SDS011;48016;50.284;18.860;2023-05-07T02:35:15;25.00;;;15.70;;
62056;SDS011;48016;50.284;18.860;2023-05-07T02:37:41;28.50;;;16.90;;
62056;SDS011;48016;50.284;18.860;2023-05-07T02:40:08;21.50;;;14.30;;
62056;SDS011;48016;50.284;18.860;2023-05-07T02:42:35;19.80;;;13.40;;
62056;SDS011;48016;50.284;18.860;2023-05-07T02:45:02;21.50;;;13.20;;
62056;SDS011;48016;50.284;18.860;2023-05-07T02:47:29;21.10;;;13.20;;
62056;SDS011;48016;50.284;18.860;2023-05-07T02:49:55;16.60;;;10.90;;
62056;SDS011;48016;50.284;18.860;2023-05-07T02:52:22;13.40;;;9.80;;
62056;SDS011;48016;50.284;18.860;2023-05-07T02:54:48;10.00;;;7.70;;
62056;SDS011;48016;50.284;18.860;2023-05-07T02:57:15;11.60;;;8.10;;
62056;SDS011;48016;50.284;18.860;2023-05-07T02:59:42;10.70;;;6.80;;
62056;SDS011;48016;50.284;18.860;2023-05-07T03:02:09;10.20;;;6.90;;
62056;SDS011;48016;50.284;18.860;2023-05-07T03:04:36;8.10;;;6.40;;
62056;SDS011;48016;50.284;18.860;2023-05-07T03:07:02;8.40;;;5.70;;
62056;SDS011;48016;50.284;18.860;2023-05-07T03:09:29;9.60;;;5.50;;
62056;SDS011;48016;50.284;18.860;2023-05-07T03:11:56;7.50;;;5.40;;
62056;SDS011;48016;50.284;18.860;2023-05-07T03:14:23;9.30;;;5.70;;
62056;SDS011;48016;50.284;18.860;2023-05-07T03:16:49;6.60;;;4.70;;
62056;SDS011;48016;50.284;18.860;2023-05-07T03:19:16;7.70;;;4.20;;
62056;SDS011;48016;50.284;18.860;2023-05-07T03:21:42;6.40;;;4.60;;
62056;SDS011;48016;50.284;18.860;2023-05-07T03:24:09;7.10;;;5.00;;
62056;SDS011;48016;50.284;18.860;2023-05-07T03:26:36;9.70;;;4.50;;
62056;SDS011;48016;50.284;18.860;2023-05-07T03:29:02;6.20;;;4.30;;
62056;SDS011;48016;50.284;18.860;2023-05-07T03:31:29;6.60;;;4.00;;
62056;SDS011;48016;50.284;18.860;2023-05-07T03:33:56;5.70;;;3.90;;
62056;SDS011;48016;50.284;18.860;2023-05-07T03:38:52;4.90;;;3.10;;
62056;SDS011;48016;50.284;18.860;2023-05-07T03:41:19;5.20;;;3.50;;
62056;SDS011;48016;50.284;18.860;2023-05-07T03:43:46;4.40;;;3.10;;
62056;SDS011;48016;50.284;18.860;2023-05-07T03:46:13;4.90;;;3.30;;
62056;SDS011;48016;50.284;18.860;2023-05-07T03:48:39;6.40;;;3.10;;
62056;SDS011;48016;50.284;18.860;2023-05-07T03:51:06;4.90;;;3.00;;
62056;SDS011;48016;50.284;18.860;2023-05-07T03:53:33;5.30;;;3.20;;
62056;SDS011;48016;50.284;18.860;2023-05-07T03:55:59;5.40;;;3.60;;
62056;SDS011;48016;50.284;18.860;2023-05-07T03:58:26;5.50;;;3.60;;
62056;SDS011;48016;50.284;18.860;2023-05-07T04:00:53;3.90;;;2.90;;
62056;SDS011;48016;50.284;18.860;2023-05-07T04:03:19;6.40;;;3.60;;
62056;SDS011;48016;50.284;18.860;2023-05-07T04:05:46;6.10;;;3.80;;
62056;SDS011;48016;50.284;18.860;2023-05-07T04:08:13;5.50;;;3.70;;
62056;SDS011;48016;50.284;18.860;2023-05-07T04:10:39;5.10;;;3.40;;
62056;SDS011;48016;50.284;18.860;2023-05-07T04:13:06;5.50;;;3.20;;
62056;SDS011;48016;50.284;18.860;2023-05-07T04:15:33;5.10;;;3.30;;
62056;SDS011;48016;50.284;18.860;2023-05-07T04:17:59;6.80;;;3.80;;
62056;SDS011;48016;50.284;18.860;2023-05-07T04:20:26;5.70;;;3.20;;
62056;SDS011;48016;50.284;18.860;2023-05-07T04:22:52;5.30;;;3.70;;
62056;SDS011;48016;50.284;18.860;2023-05-07T04:25:19;9.70;;;3.10;;
62056;SDS011;48016;50.284;18.860;2023-05-07T04:27:46;5.20;;;3.20;;
62056;SDS011;48016;50.284;18.860;2023-05-07T04:30:12;6.50;;;4.10;;
62056;SDS011;48016;50.284;18.860;2023-05-07T04:32:39;6.60;;;3.90;;
62056;SDS011;48016;50.284;18.860;2023-05-07T04:35:06;5.10;;;3.60;;
62056;SDS011;48016;50.284;18.860;2023-05-07T04:37:33;5.80;;;3.40;;
62056;SDS011;48016;50.284;18.860;2023-05-07T04:39:59;4.90;;;2.70;;
62056;SDS011;48016;50.284;18.860;2023-05-07T04:42:26;5.80;;;3.50;;
62056;SDS011;48016;50.284;18.860;2023-05-07T04:44:53;6.80;;;3.40;;
62056;SDS011;48016;50.284;18.860;2023-05-07T04:47:21;6.00;;;3.90;;
62056;SDS011;48016;50.284;18.860;2023-05-07T04:49:47;8.00;;;4.40;;
62056;SDS011;48016;50.284;18.860;2023-05-07T04:52:14;7.00;;;3.50;;
62056;SDS011;48016;50.284;18.860;2023-05-07T04:54:43;6.30;;;3.70;;
62056;SDS011;48016;50.284;18.860;2023-05-07T04:57:10;6.10;;;4.00;;
62056;SDS011;48016;50.284;18.860;2023-05-07T04:59:36;5.60;;;3.70;;
62056;SDS011;48016;50.284;18.860;2023-05-07T05:02:03;6.60;;;4.00;;
62056;SDS011;48016;50.284;18.860;2023-05-07T05:04:30;6.10;;;3.20;;
62056;SDS011;48016;50.284;18.860;2023-05-07T05:06:57;5.30;;;3.80;;
62056;SDS011;48016;50.284;18.860;2023-05-07T05:09:24;5.30;;;3.80;;
62056;SDS011;48016;50.284;18.860;2023-05-07T05:11:51;5.90;;;4.00;;
62056;SDS011;48016;50.284;18.860;2023-05-07T05:14:17;7.20;;;4.10;;
62056;SDS011;48016;50.284;18.860;2023-05-07T05:16:44;5.70;;;3.90;;
62056;SDS011;48016;50.284;18.860;2023-05-07T05:19:10;5.50;;;3.40;;
62056;SDS011;48016;50.284;18.860;2023-05-07T05:21:37;5.10;;;2.90;;
62056;SDS011;48016;50.284;18.860;2023-05-07T05:24:04;5.00;;;3.60;;
62056;SDS011;48016;50.284;18.860;2023-05-07T05:26:30;5.70;;;3.90;;
62056;SDS011;48016;50.284;18.860;2023-05-07T05:28:57;5.90;;;3.10;;
62056;SDS011;48016;50.284;18.860;2023-05-07T05:31:24;4.40;;;3.50;;
62056;SDS011;48016;50.284;18.860;2023-05-07T05:33:50;4.50;;;3.10;;
62056;SDS011;48016;50.284;18.860;2023-05-07T05:36:17;5.30;;;3.00;;
62056;SDS011;48016;50.284;18.860;2023-05-07T05:38:44;4.10;;;3.10;;
62056;SDS011;48016;50.284;18.860;2023-05-07T05:41:10;4.80;;;3.20;;
62056;SDS011;48016;50.284;18.860;2023-05-07T05:43:37;4.40;;;3.30;;
62056;SDS011;48016;50.284;18.860;2023-05-07T05:46:03;5.50;;;3.70;;
62056;SDS011;48016;50.284;18.860;2023-05-07T05:48:34;4.60;;;3.70;;
62056;SDS011;48016;50.284;18.860;2023-05-07T05:51:01;4.60;;;3.80;;
62056;SDS011;48016;50.284;18.860;2023-05-07T05:53:27;5.50;;;3.70;;
62056;SDS011;48016;50.284;18.860;2023-05-07T05:55:54;5.10;;;3.40;;
62056;SDS011;48016;50.284;18.860;2023-05-07T05:58:21;5.20;;;3.60;;
62056;SDS011;48016;50.284;18.860;2023-05-07T06:00:47;4.40;;;3.40;;
62056;SDS011;48016;50.284;18.860;2023-05-07T06:03:14;4.70;;;3.00;;
62056;SDS011;48016;50.284;18.860;2023-05-07T06:05:41;3.90;;;2.60;;
62056;SDS011;48016;50.284;18.860;2023-05-07T06:08:08;4.70;;;2.70;;
62056;SDS011;48016;50.284;18.860;2023-05-07T06:10:35;3.90;;;2.80;;
62056;SDS011;48016;50.284;18.860;2023-05-07T06:13:03;5.40;;;3.20;;
62056;SDS011;48016;50.284;18.860;2023-05-07T06:15:30;4.00;;;2.70;;
62056;SDS011;48016;50.284;18.860;2023-05-07T06:17:56;4.20;;;2.90;;
62056;SDS011;48016;50.284;18.860;2023-05-07T06:20:23;4.20;;;2.90;;
62056;SDS011;48016;50.284;18.860;2023-05-07T06:22:50;4.00;;;3.00;;
62056;SDS011;48016;50.284;18.860;2023-05-07T06:25:16;5.30;;;3.20;;
62056;SDS011;48016;50.284;18.860;2023-05-07T06:27:43;4.10;;;2.70;;
62056;SDS011;48016;50.284;18.860;2023-05-07T06:30:10;4.90;;;3.10;;
62056;SDS011;48016;50.284;18.860;2023-05-07T06:32:36;5.70;;;4.20;;
62056;SDS011;48016;50.284;18.860;2023-05-07T06:35:03;5.40;;;3.10;;
62056;SDS011;48016;50.284;18.860;2023-05-07T06:37:30;6.50;;;4.20;;
62056;SDS011;48016;50.284;18.860;2023-05-07T06:39:57;6.10;;;3.40;;
62056;SDS011;48016;50.284;18.860;2023-05-07T06:42:23;4.30;;;2.70;;
62056;SDS011;48016;50.284;18.860;2023-05-07T06:44:50;4.00;;;2.50;;
62056;SDS011;48016;50.284;18.860;2023-05-07T06:47:16;4.30;;;2.80;;
62056;SDS011;48016;50.284;18.860;2023-05-07T06:49:43;3.70;;;3.00;;
62056;SDS011;48016;50.284;18.860;2023-05-07T06:52:10;4.90;;;2.80;;
62056;SDS011;48016;50.284;18.860;2023-05-07T06:54:36;4.20;;;2.90;;
62056;SDS011;48016;50.284;18.860;2023-05-07T06:57:03;4.60;;;3.30;;
62056;SDS011;48016;50.284;18.860;2023-05-07T06:59:29;4.00;;;2.60;;
62056;SDS011;48016;50.284;18.860;2023-05-07T07:01:56;5.40;;;3.60;;
62056;SDS011;48016;50.284;18.860;2023-05-07T07:04:22;5.20;;;3.20;;
62056;SDS011;48016;50.284;18.860;2023-05-07T07:09:18;11.70;;;3.80;;
62056;SDS011;48016;50.284;18.860;2023-05-07T07:11:44;6.00;;;3.60;;
62056;SDS011;48016;50.284;18.860;2023-05-07T07:14:11;5.00;;;3.50;;
62056;SDS011;48016;50.284;18.860;2023-05-07T07:16:38;5.10;;;3.10;;
62056;SDS011;48016;50.284;18.860;2023-05-07T07:19:04;4.70;;;2.90;;
62056;SDS011;48016;50.284;18.860;2023-05-07T07:21:31;6.20;;;3.60;;
62056;SDS011;48016;50.284;18.860;2023-05-07T07:23:58;5.50;;;3.80;;
62056;SDS011;48016;50.284;18.860;2023-05-07T07:26:24;4.70;;;3.30;;
62056;SDS011;48016;50.284;18.860;2023-05-07T07:28:51;6.50;;;4.10;;
62056;SDS011;48016;50.284;18.860;2023-05-07T07:31:18;5.20;;;3.50;;
62056;SDS011;48016;50.284;18.860;2023-05-07T07:33:44;5.40;;;3.70;;
62056;SDS011;48016;50.284;18.860;2023-05-07T07:36:11;6.80;;;3.60;;
62056;SDS011;48016;50.284;18.860;2023-05-07T07:38:37;4.80;;;3.00;;
62056;SDS011;48016;50.284;18.860;2023-05-07T07:41:04;4.80;;;3.20;;
62056;SDS011;48016;50.284;18.860;2023-05-07T07:43:31;3.80;;;2.50;;
62056;SDS011;48016;50.284;18.860;2023-05-07T07:45:57;4.10;;;2.90;;
62056;SDS011;48016;50.284;18.860;2023-05-07T07:48:27;3.50;;;2.30;;
62056;SDS011;48016;50.284;18.860;2023-05-07T07:50:53;3.90;;;2.80;;
62056;SDS011;48016;50.284;18.860;2023-05-07T07:53:20;3.10;;;2.40;;
62056;SDS011;48016;50.284;18.860;2023-05-07T07:55:47;3.90;;;2.60;;
62056;SDS011;48016;50.284;18.860;2023-05-07T07:58:13;4.70;;;2.70;;
62056;SDS011;48016;50.284;18.860;2023-05-07T08:00:40;3.70;;;2.50;;
62056;SDS011;48016;50.284;18.860;2023-05-07T08:03:08;4.40;;;2.60;;
62056;SDS011;48016;50.284;18.860;2023-05-07T08:05:36;3.90;;;2.30;;
62056;SDS011;48016;50.284;18.860;2023-05-07T08:08:04;3.10;;;2.10;;
62056;SDS011;48016;50.284;18.860;2023-05-07T08:10:32;3.20;;;1.80;;
62056;SDS011;48016;50.284;18.860;2023-05-07T08:13:00;2.60;;;1.90;;
62056;SDS011;48016;50.284;18.860;2023-05-07T08:15:29;3.50;;;2.30;;
62056;SDS011;48016;50.284;18.860;2023-05-07T08:17:57;4.40;;;2.40;;
62056;SDS011;48016;50.284;18.860;2023-05-07T08:20:24;5.30;;;2.60;;
62056;SDS011;48016;50.284;18.860;2023-05-07T08:22:51;3.30;;;2.80;;
62056;SDS011;48016;50.284;18.860;2023-05-07T08:25:17;3.50;;;2.70;;
62056;SDS011;48016;50.284;18.860;2023-05-07T08:27:44;3.70;;;2.70;;
62056;SDS011;48016;50.284;18.860;2023-05-07T08:30:11;3.90;;;3.40;;
62056;SDS011;48016;50.284;18.860;2023-05-07T08:32:38;3.70;;;2.90;;
62056;SDS011;48016;50.284;18.860;2023-05-07T08:35:05;4.30;;;3.60;;
62056;SDS011;48016;50.284;18.860;2023-05-07T08:37:31;4.40;;;3.60;;
62056;SDS011;48016;50.284;18.860;2023-05-07T08:39:58;5.80;;;3.90;;
62056;SDS011;48016;50.284;18.860;2023-05-07T08:42:25;5.60;;;4.10;;
62056;SDS011;48016;50.284;18.860;2023-05-07T08:44:53;5.60;;;3.80;;
62056;SDS011;48016;50.284;18.860;2023-05-07T08:47:23;4.50;;;3.50;;
62056;SDS011;48016;50.284;18.860;2023-05-07T08:50:03;5.20;;;4.30;;
62056;SDS011;48016;50.284;18.860;2023-05-07T08:52:31;6.10;;;4.40;;
62056;SDS011;48016;50.284;18.860;2023-05-07T08:54:58;5.50;;;4.20;;
62056;SDS011;48016;50.284;18.860;2023-05-07T08:57:25;4.80;;;3.40;;
62056;SDS011;48016;50.284;18.860;2023-05-07T08:59:54;4.90;;;3.60;;
62056;SDS011;48016;50.284;18.860;2023-05-07T09:02:21;6.00;;;4.40;;
62056;SDS011;48016;50.284;18.860;2023-05-07T09:04:52;7.50;;;4.50;;
62056;SDS011;48016;50.284;18.860;2023-05-07T09:07:22;5.30;;;3.50;;
62056;SDS011;48016;50.284;18.860;2023-05-07T09:09:48;5.40;;;4.00;;
62056;SDS011;48016;50.284;18.860;2023-05-07T09:12:15;5.40;;;3.80;;
62056;SDS011;48016;50.284;18.860;2023-05-07T09:14:41;4.80;;;3.60;;
62056;SDS011;48016;50.284;18.860;2023-05-07T09:17:08;5.50;;;4.00;;
62056;SDS011;48016;50.284;18.860;2023-05-07T09:19:34;5.70;;;3.70;;
62056;SDS011;48016;50.284;18.860;2023-05-07T09:22:02;4.40;;;3.70;;
62056;SDS011;48016;50.284;18.860;2023-05-07T09:24:30;5.60;;;4.10;;
62056;SDS011;48016;50.284;18.860;2023-05-07T09:27:01;4.80;;;4.20;;
62056;SDS011;48016;50.284;18.860;2023-05-07T09:29:28;6.50;;;4.10;;
62056;SDS011;48016;50.284;18.860;2023-05-07T09:31:56;5.50;;;3.70;;
62056;SDS011;48016;50.284;18.860;2023-05-07T09:34:23;6.00;;;4.00;;
62056;SDS011;48016;50.284;18.860;2023-05-07T09:36:49;5.60;;;3.90;;
62056;SDS011;48016;50.284;18.860;2023-05-07T09:39:16;4.90;;;4.20;;
62056;SDS011;48016;50.284;18.860;2023-05-07T09:41:43;5.80;;;4.30;;
62056;SDS011;48016;50.284;18.860;2023-05-07T09:44:11;5.00;;;3.90;;
62056;SDS011;48016;50.284;18.860;2023-05-07T09:49:07;10.50;;;6.40;;
62056;SDS011;48016;50.284;18.860;2023-05-07T09:51:41;8.10;;;6.10;;
62056;SDS011;48016;50.284;18.860;2023-05-07T09:54:13;7.50;;;5.80;;
62056;SDS011;48016;50.284;18.860;2023-05-07T09:56:41;7.30;;;5.10;;
62056;SDS011;48016;50.284;18.860;2023-05-07T09:59:13;7.40;;;5.30;;
62056;SDS011;48016;50.284;18.860;2023-05-07T10:01:44;7.20;;;5.60;;
62056;SDS011;48016;50.284;18.860;2023-05-07T10:04:11;11.30;;;8.90;;
62056;SDS011;48016;50.284;18.860;2023-05-07T10:06:38;8.10;;;6.20;;
62056;SDS011;48016;50.284;18.860;2023-05-07T10:11:36;6.40;;;4.60;;
62056;SDS011;48016;50.284;18.860;2023-05-07T10:14:03;6.80;;;5.10;;
62056;SDS011;48016;50.284;18.860;2023-05-07T10:16:35;7.00;;;4.90;;
62056;SDS011;48016;50.284;18.860;2023-05-07T10:19:06;6.50;;;4.90;;
62056;SDS011;48016;50.284;18.860;2023-05-07T10:21:36;7.20;;;5.50;;
62056;SDS011;48016;50.284;18.860;2023-05-07T10:24:06;6.70;;;5.00;;
62056;SDS011;48016;50.284;18.860;2023-05-07T10:26:36;7.50;;;5.30;;
62056;SDS011;48016;50.284;18.860;2023-05-07T10:29:14;7.10;;;5.00;;
62056;SDS011;48016;50.284;18.860;2023-05-07T10:34:28;6.30;;;4.90;;
62056;SDS011;48016;50.284;18.860;2023-05-07T10:36:58;8.30;;;5.10;;
62056;SDS011;48016;50.284;18.860;2023-05-07T10:39:26;7.30;;;5.40;;
62056;SDS011;48016;50.284;18.860;2023-05-07T10:41:53;5.50;;;4.50;;
62056;SDS011;48016;50.284;18.860;2023-05-07T10:44:27;6.50;;;4.80;;
62056;SDS011;48016;50.284;18.860;2023-05-07T10:52:17;6.40;;;4.60;;
62056;SDS011;48016;50.284;18.860;2023-05-07T10:57:41;6.40;;;4.90;;
62056;SDS011;48016;50.284;18.860;2023-05-07T11:05:26;5.90;;;4.50;;
62056;SDS011;48016;50.284;18.860;2023-05-07T11:07:58;6.50;;;4.90;;
62056;SDS011;48016;50.284;18.860;2023-05-07T11:11:13;7.30;;;5.50;;
62056;SDS011;48016;50.284;18.860;2023-05-07T11:13:18;6.20;;;5.00;;
62056;SDS011;48016;50.284;18.860;2023-05-07T11:16:16;4.20;;;2.90;;
62056;SDS011;48016;50.284;18.860;2023-05-07T11:18:54;4.30;;;3.40;;
62056;SDS011;48016;50.284;18.860;2023-05-07T11:24:06;5.30;;;3.60;;
62056;SDS011;48016;50.284;18.860;2023-05-07T11:26:45;5.50;;;3.60;;
62056;SDS011;48016;50.284;18.860;2023-05-07T11:31:53;5.40;;;3.50;;
62056;SDS011;48016;50.284;18.860;2023-05-07T11:34:25;4.20;;;3.10;;
62056;SDS011;48016;50.284;18.860;2023-05-07T11:36:53;5.10;;;3.70;;
62056;SDS011;48016;50.284;18.860;2023-05-07T11:39:28;4.60;;;3.80;;
62056;SDS011;48016;50.284;18.860;2023-05-07T11:41:59;6.00;;;4.30;;
62056;SDS011;48016;50.284;18.860;2023-05-07T11:44:40;5.80;;;4.20;;
62056;SDS011;48016;50.284;18.860;2023-05-07T11:47:16;6.50;;;4.80;;
62056;SDS011;48016;50.284;18.860;2023-05-07T11:49:50;6.20;;;5.00;;
62056;SDS011;48016;50.284;18.860;2023-05-07T11:52:23;6.80;;;4.80;;
62056;SDS011;48016;50.284;18.860;2023-05-07T11:54:57;6.20;;;5.00;;
62056;SDS011;48016;50.284;18.860;2023-05-07T11:57:28;7.10;;;5.10;;
62056;SDS011;48016;50.284;18.860;2023-05-07T11:59:59;6.60;;;5.40;;
62056;SDS011;48016;50.284;18.860;2023-05-07T12:02:28;6.20;;;5.40;;
62056;SDS011;48016;50.284;18.860;2023-05-07T12:04:55;6.50;;;4.80;;
62056;SDS011;48016;50.284;18.860;2023-05-07T12:07:24;6.90;;;4.80;;
62056;SDS011;48016;50.284;18.860;2023-05-07T12:09:54;5.50;;;4.50;;
62056;SDS011;48016;50.284;18.860;2023-05-07T12:12:20;7.60;;;5.10;;
62056;SDS011;48016;50.284;18.860;2023-05-07T12:14:47;6.50;;;4.60;;
62056;SDS011;48016;50.284;18.860;2023-05-07T12:17:14;6.00;;;4.50;;
62056;SDS011;48016;50.284;18.860;2023-05-07T12:19:43;7.90;;;5.50;;
62056;SDS011;48016;50.284;18.860;2023-05-07T12:22:11;7.50;;;5.40;;
62056;SDS011;48016;50.284;18.860;2023-05-07T12:24:48;6.50;;;4.60;;
62056;SDS011;48016;50.284;18.860;2023-05-07T12:27:16;5.90;;;4.90;;
62056;SDS011;48016;50.284;18.860;2023-05-07T12:32:14;6.60;;;5.40;;
62056;SDS011;48016;50.284;18.860;2023-05-07T12:34:42;10.00;;;5.30;;
62056;SDS011;48016;50.284;18.860;2023-05-07T12:37:09;7.00;;;5.60;;
62056;SDS011;48016;50.284;18.860;2023-05-07T12:39:36;7.60;;;4.80;;
62056;SDS011;48016;50.284;18.860;2023-05-07T12:42:03;7.90;;;5.50;;
62056;SDS011;48016;50.284;18.860;2023-05-07T12:44:30;5.70;;;4.60;;
62056;SDS011;48016;50.284;18.860;2023-05-07T12:47:01;6.40;;;4.80;;
62056;SDS011;48016;50.284;18.860;2023-05-07T12:49:28;7.20;;;4.80;;
62056;SDS011;48016;50.284;18.860;2023-05-07T12:51:54;7.10;;;5.10;;
62056;SDS011;48016;50.284;18.860;2023-05-07T12:59:36;6.90;;;4.60;;
62056;SDS011;48016;50.284;18.860;2023-05-07T13:02:03;6.50;;;5.00;;
62056;SDS011;48016;50.284;18.860;2023-05-07T13:06:57;6.10;;;3.50;;
62056;SDS011;48016;50.284;18.860;2023-05-07T13:09:24;5.30;;;4.10;;
62056;SDS011;48016;50.284;18.860;2023-05-07T13:11:52;6.00;;;3.80;;
62056;SDS011;48016;50.284;18.860;2023-05-07T13:14:19;4.80;;;3.60;;
62056;SDS011;48016;50.284;18.860;2023-05-07T13:16:47;5.50;;;3.90;;
62056;SDS011;48016;50.284;18.860;2023-05-07T13:19:14;5.80;;;3.90;;
62056;SDS011;48016;50.284;18.860;2023-05-07T13:21:40;5.50;;;3.80;;
62056;SDS011;48016;50.284;18.860;2023-05-07T13:24:07;6.30;;;4.10;;
62056;SDS011;48016;50.284;18.860;2023-05-07T13:26:34;7.10;;;4.90;;
62056;SDS011;48016;50.284;18.860;2023-05-07T13:29:00;7.10;;;4.90;;
62056;SDS011;48016;50.284;18.860;2023-05-07T13:31:27;6.30;;;4.50;;
62056;SDS011;48016;50.284;18.860;2023-05-07T13:33:54;6.10;;;4.20;;
62056;SDS011;48016;50.284;18.860;2023-05-07T13:36:22;5.60;;;4.30;;
62056;SDS011;48016;50.284;18.860;2023-05-07T13:38:49;7.70;;;5.00;;
62056;SDS011;48016;50.284;18.860;2023-05-07T13:41:17;6.50;;;4.70;;
62056;SDS011;48016;50.284;18.860;2023-05-07T13:43:44;6.70;;;4.50;;
62056;SDS011;48016;50.284;18.860;2023-05-07T13:46:10;6.00;;;4.30;;
62056;SDS011;48016;50.284;18.860;2023-05-07T13:48:37;5.70;;;4.10;;
62056;SDS011;48016;50.284;18.860;2023-05-07T13:51:04;6.90;;;5.10;;
62056;SDS011;48016;50.284;18.860;2023-05-07T13:53:30;5.60;;;4.00;;
62056;SDS011;48016;50.284;18.860;2023-05-07T13:55:57;6.60;;;4.40;;
62056;SDS011;48016;50.284;18.860;2023-05-07T13:58:23;6.00;;;4.50;;
62056;SDS011;48016;50.284;18.860;2023-05-07T14:00:50;5.50;;;4.30;;
62056;SDS011;48016;50.284;18.860;2023-05-07T14:03:17;5.60;;;4.20;;
62056;SDS011;48016;50.284;18.860;2023-05-07T14:05:45;5.80;;;3.90;;
62056;SDS011;48016;50.284;18.860;2023-05-07T14:08:12;6.40;;;4.30;;
62056;SDS011;48016;50.284;18.860;2023-05-07T14:10:40;5.90;;;3.40;;
62056;SDS011;48016;50.284;18.860;2023-05-07T14:13:06;5.40;;;3.60;;
62056;SDS011;48016;50.284;18.860;2023-05-07T14:15:33;5.10;;;3.50;;
62056;SDS011;48016;50.284;18.860;2023-05-07T14:18:00;5.40;;;4.20;;
62056;SDS011;48016;50.284;18.860;2023-05-07T14:20:26;5.40;;;3.80;;
62056;SDS011;48016;50.284;18.860;2023-05-07T14:22:53;5.70;;;4.50;;
62056;SDS011;48016;50.284;18.860;2023-05-07T14:25:19;6.10;;;4.70;;
62056;SDS011;48016;50.284;18.860;2023-05-07T14:27:46;6.10;;;3.90;;
62056;SDS011;48016;50.284;18.860;2023-05-07T14:30:13;7.70;;;4.60;;
62056;SDS011;48016;50.284;18.860;2023-05-07T14:32:39;5.80;;;4.40;;
62056;SDS011;48016;50.284;18.860;2023-05-07T14:35:06;6.70;;;4.10;;
62056;SDS011;48016;50.284;18.860;2023-05-07T14:37:33;5.60;;;3.80;;
62056;SDS011;48016;50.284;18.860;2023-05-07T14:39:59;5.00;;;3.40;;
62056;SDS011;48016;50.284;18.860;2023-05-07T14:42:26;5.90;;;4.20;;
62056;SDS011;48016;50.284;18.860;2023-05-07T14:44:52;5.90;;;3.60;;
62056;SDS011;48016;50.284;18.860;2023-05-07T14:47:19;6.90;;;4.70;;
62056;SDS011;48016;50.284;18.860;2023-05-07T14:49:46;8.40;;;5.10;;
62056;SDS011;48016;50.284;18.860;2023-05-07T14:52:12;8.10;;;5.50;;
62056;SDS011;48016;50.284;18.860;2023-05-07T14:54:39;5.90;;;4.40;;
62056;SDS011;48016;50.284;18.860;2023-05-07T14:57:06;7.20;;;5.50;;
62056;SDS011;48016;50.284;18.860;2023-05-07T14:59:34;7.40;;;4.90;;
62056;SDS011;48016;50.284;18.860;2023-05-07T15:02:01;6.50;;;4.90;;
62056;SDS011;48016;50.284;18.860;2023-05-07T15:04:28;7.50;;;5.40;;
62056;SDS011;48016;50.284;18.860;2023-05-07T15:06:54;7.20;;;5.70;;
62056;SDS011;48016;50.284;18.860;2023-05-07T15:11:48;8.20;;;5.90;;
62056;SDS011;48016;50.284;18.860;2023-05-07T15:14:15;7.40;;;5.40;;
62056;SDS011;48016;50.284;18.860;2023-05-07T15:16:41;8.20;;;5.30;;